createdAt,value
2023-03-01T00:00:43.649Z,19.60
2023-03-01T00:02:45.415Z,19.60
2023-03-01T00:04:47.180Z,19.60
2023-03-01T00:06:49.012Z,19.60
2023-03-01T00:08:51.159Z,19.60
2023-03-01T00:11:11.437Z,19.60
2023-03-01T00:13:13.254Z,19.60
2023-03-01T00:15:14.994Z,19.60
2023-03-01T00:17:16.809Z,19.60
2023-03-01T00:19:20.079Z,19.60
2023-03-01T00:21:22.504Z,19.60
2023-03-01T00:23:24.525Z,19.60
2023-03-01T00:25:26.301Z,19.60
2023-03-01T00:27:28.058Z,19.60
2023-03-01T00:29:29.943Z,19.70
2023-03-01T00:31:32.531Z,19.60
2023-03-01T00:33:34.747Z,19.60
2023-03-01T00:35:36.980Z,19.60
2023-03-01T00:37:38.774Z,19.60
2023-03-01T00:39:40.539Z,19.60
2023-03-01T00:41:42.730Z,19.70
2023-03-01T00:43:44.888Z,19.60
2023-03-01T00:45:46.697Z,19.60
2023-03-01T00:47:49.393Z,19.60
2023-03-01T00:49:51.195Z,19.60
2023-03-01T00:51:53.078Z,19.60
2023-03-01T00:53:55.580Z,19.60
2023-03-01T00:55:58.195Z,19.60
2023-03-01T00:57:59.929Z,19.60
2023-03-01T01:00:01.698Z,19.60
2023-03-01T01:02:03.502Z,19.60
2023-03-01T01:04:10.311Z,19.60
2023-03-01T01:06:16.787Z,19.60
2023-03-01T01:08:19.035Z,19.70
2023-03-01T01:10:21.997Z,19.60
2023-03-01T01:12:23.842Z,19.60
2023-03-01T01:14:25.613Z,19.60
2023-03-01T01:16:28.119Z,19.60
2023-03-01T01:18:29.978Z,19.60
2023-03-01T01:20:31.886Z,19.60
2023-03-01T01:22:34.117Z,19.60
2023-03-01T01:24:36.056Z,19.60
2023-03-01T01:26:37.937Z,19.60
2023-03-01T01:28:40.174Z,19.60
2023-03-01T01:30:43.186Z,19.60
2023-03-01T01:32:45.057Z,19.60
2023-03-01T01:34:46.794Z,19.50
2023-03-01T01:36:49.559Z,19.50
2023-03-01T01:38:51.686Z,19.60
2023-03-01T01:40:53.582Z,19.50
2023-03-01T01:42:55.346Z,19.50
2023-03-01T01:45:15.654Z,19.50
2023-03-01T01:47:19.199Z,19.60
2023-03-01T01:49:27.939Z,19.50
2023-03-01T01:51:32.473Z,19.50
2023-03-01T01:53:34.278Z,19.60
2023-03-01T01:55:37.163Z,19.60
2023-03-01T01:57:44.144Z,19.60
2023-03-01T01:59:49.691Z,19.60
2023-03-01T02:01:52.600Z,19.60
2023-03-01T02:03:54.403Z,19.60
2023-03-01T02:05:56.175Z,19.60
2023-03-01T02:07:59.198Z,19.60
2023-03-01T02:10:01.261Z,19.60
2023-03-01T02:12:04.503Z,19.60
2023-03-01T02:14:06.302Z,19.60
2023-03-01T02:16:12.637Z,19.60
2023-03-01T02:18:17.441Z,19.50
2023-03-01T02:20:28.298Z,19.50
2023-03-01T02:22:32.302Z,19.50
2023-03-01T02:25:03.666Z,19.50
2023-03-01T02:27:05.487Z,19.60
2023-03-01T02:29:07.382Z,19.50
2023-03-01T02:31:10.291Z,19.50
2023-03-01T02:33:12.543Z,19.60
2023-03-01T02:35:15.155Z,19.50
2023-03-01T02:37:17.167Z,19.50
2023-03-01T02:39:24.747Z,19.50
2023-03-01T02:41:29.022Z,19.50
2023-03-01T02:43:32.295Z,19.50
2023-03-01T02:45:34.055Z,19.50
2023-03-01T02:47:35.830Z,19.50
2023-03-01T02:49:38.113Z,19.50
2023-03-01T02:51:58.604Z,19.50
2023-03-01T02:54:06.980Z,19.50
2023-03-01T02:56:09.375Z,19.50
2023-03-01T02:58:11.290Z,19.60
2023-03-01T03:00:15.481Z,19.50
2023-03-01T03:02:22.038Z,19.50
2023-03-01T03:04:23.904Z,19.60
2023-03-01T03:06:25.797Z,19.50
2023-03-01T03:08:27.574Z,19.50
2023-03-01T03:10:31.976Z,19.60
2023-03-01T03:12:33.794Z,19.50
2023-03-01T03:15:00.601Z,19.50
2023-03-01T03:17:02.379Z,19.50
2023-03-01T03:19:04.969Z,19.50
2023-03-01T03:21:09.766Z,19.50
2023-03-01T03:23:11.557Z,19.50
2023-03-01T03:25:13.405Z,19.50
2023-03-01T03:27:15.201Z,19.50
2023-03-01T03:29:16.964Z,19.50
2023-03-01T03:31:18.842Z,19.50
2023-03-01T03:33:20.569Z,19.50
2023-03-01T03:35:27.407Z,19.50
2023-03-01T03:53:40.894Z,19.60
2023-03-01T03:55:42.614Z,19.50
2023-03-01T03:57:44.421Z,19.50
2023-03-01T03:59:46.141Z,19.50
2023-03-01T04:01:47.953Z,19.50
2023-03-01T04:03:50.016Z,19.50
2023-03-01T04:05:52.388Z,19.50
2023-03-01T04:07:54.162Z,19.50
2023-03-01T04:09:55.822Z,19.50
2023-03-01T04:11:57.502Z,19.50
2023-03-01T04:13:59.293Z,19.50
2023-03-01T04:16:00.998Z,19.50
2023-03-01T04:18:03.113Z,19.50
2023-03-01T04:20:05.105Z,19.50
2023-03-01T04:22:06.771Z,19.50
2023-03-01T04:24:08.595Z,19.50
2023-03-01T04:26:10.319Z,19.50
2023-03-01T04:28:12.638Z,19.50
2023-03-01T04:30:14.528Z,19.50
2023-03-01T04:32:16.369Z,19.50
2023-03-01T04:34:18.234Z,19.50
2023-03-01T04:36:21.033Z,19.50
2023-03-01T04:38:22.911Z,19.50
2023-03-01T04:40:24.641Z,19.50
2023-03-01T04:42:26.387Z,19.40
2023-03-01T04:44:28.194Z,19.50
2023-03-01T04:46:30.164Z,19.50
2023-03-01T04:48:32.160Z,19.50
2023-03-01T04:50:34.013Z,19.50
2023-03-01T04:52:36.003Z,19.50
2023-03-01T04:54:37.777Z,19.50
2023-03-01T04:56:39.540Z,19.50
2023-03-01T04:58:41.354Z,19.50
2023-03-01T05:00:43.158Z,19.50
2023-03-01T05:02:44.854Z,19.50
2023-03-01T05:04:46.648Z,19.50
2023-03-01T05:06:48.424Z,19.50
2023-03-01T05:08:50.144Z,19.50
2023-03-01T05:10:52.856Z,19.50
2023-03-01T05:12:54.655Z,19.50
2023-03-01T05:14:56.325Z,19.50
2023-03-01T05:16:58.074Z,19.50
2023-03-01T05:19:00.169Z,19.50
2023-03-01T05:21:06.041Z,19.40
2023-03-01T05:23:07.770Z,19.50
2023-03-01T05:25:09.639Z,19.50
2023-03-01T05:27:11.646Z,19.50
2023-03-01T05:29:13.415Z,19.50
2023-03-01T05:31:15.277Z,19.50
2023-03-01T05:33:17.039Z,19.50
2023-03-01T05:35:18.908Z,19.50
2023-03-01T05:37:20.843Z,19.50
2023-03-01T05:39:23.625Z,19.40
2023-03-01T05:41:25.398Z,19.40
2023-03-01T05:43:27.204Z,19.40
2023-03-01T05:45:28.917Z,19.40
2023-03-01T05:47:30.687Z,19.50
2023-03-01T05:49:32.517Z,19.50
2023-03-01T05:51:34.270Z,19.40
2023-03-01T05:53:36.013Z,19.40
2023-03-01T05:55:38.332Z,19.50
2023-03-01T05:57:40.063Z,19.50
2023-03-01T05:59:41.807Z,19.50
2023-03-01T06:01:43.504Z,19.50
2023-03-01T06:03:45.226Z,19.50
2023-03-01T06:05:47.069Z,19.50
2023-03-01T06:07:49.237Z,19.50
2023-03-01T06:09:50.976Z,19.50
2023-03-01T06:11:52.753Z,19.50
2023-03-01T06:13:54.599Z,19.40
2023-03-01T06:15:56.353Z,19.40
2023-03-01T06:17:59.699Z,19.50
2023-03-01T06:20:02.041Z,19.40
2023-03-01T06:22:03.802Z,19.40
2023-03-01T06:24:05.644Z,19.50
2023-03-01T06:26:08.232Z,19.40
2023-03-01T06:28:09.895Z,19.40
2023-03-01T06:30:12.990Z,19.40
2023-03-01T06:32:14.755Z,19.40
2023-03-01T06:34:16.626Z,19.50
2023-03-01T06:36:18.326Z,19.40
2023-03-01T06:38:20.049Z,19.40
2023-03-01T06:40:21.829Z,19.50
2023-03-01T06:42:23.486Z,19.50
2023-03-01T06:44:25.374Z,19.50
2023-03-01T06:46:27.283Z,19.40
2023-03-01T06:48:29.044Z,19.40
2023-03-01T06:50:30.866Z,19.40
2023-03-01T06:52:32.641Z,19.40
2023-03-01T06:54:34.340Z,19.40
2023-03-01T06:56:36.211Z,19.50
2023-03-01T06:58:37.967Z,19.50
2023-03-01T07:00:39.692Z,19.50
2023-03-01T07:02:41.519Z,19.50
2023-03-01T07:04:43.481Z,19.50
2023-03-01T07:06:45.221Z,19.50
2023-03-01T07:08:46.995Z,19.40
2023-03-01T07:10:49.104Z,19.40
2023-03-01T07:12:55.028Z,19.50
2023-03-01T07:14:56.725Z,19.40
2023-03-01T07:16:58.451Z,19.40
2023-03-01T07:19:00.875Z,19.40
2023-03-01T07:21:07.125Z,19.40
2023-03-01T07:23:08.807Z,19.40
2023-03-01T07:25:10.993Z,19.40
2023-03-01T07:27:12.901Z,19.40
2023-03-01T07:29:14.566Z,19.50
2023-03-01T07:31:16.406Z,19.50
2023-03-01T07:33:18.441Z,19.40
2023-03-01T07:35:20.107Z,19.50
2023-03-01T07:37:21.906Z,19.50
2023-03-01T07:39:23.731Z,19.50
2023-03-01T07:41:25.885Z,19.50
2023-03-01T07:43:28.341Z,19.40
2023-03-01T07:45:30.186Z,19.40
2023-03-01T07:47:32.381Z,19.40
2023-03-01T07:49:34.073Z,19.40
2023-03-01T07:51:35.820Z,19.50
2023-03-01T07:53:37.638Z,19.50
2023-03-01T07:55:39.355Z,19.40
2023-03-01T07:57:41.154Z,19.50
2023-03-01T07:59:42.905Z,19.50
2023-03-01T08:01:44.609Z,19.50
2023-03-01T08:03:46.547Z,19.40
2023-03-01T08:05:48.229Z,19.40
2023-03-01T08:07:50.185Z,19.40
2023-03-01T08:09:51.930Z,19.30
2023-03-01T08:11:53.687Z,19.30
2023-03-01T08:13:55.562Z,19.40
2023-03-01T08:16:08.063Z,19.40
2023-03-01T08:18:09.890Z,19.50
2023-03-01T08:20:11.827Z,19.50
2023-03-01T08:22:13.557Z,19.60
2023-03-01T08:24:15.328Z,19.70
2023-03-01T08:26:18.718Z,19.80
2023-03-01T08:28:20.516Z,19.90
2023-03-01T08:32:47.990Z,19.80
2023-03-01T08:34:49.769Z,19.80
2023-03-01T08:36:51.475Z,19.80
2023-03-01T08:38:53.654Z,19.90
2023-03-01T08:40:55.906Z,19.90
2023-03-01T08:42:59.107Z,19.90
2023-03-01T08:45:01.707Z,19.90
2023-03-01T08:47:04.169Z,20.00
2023-03-01T08:49:12.084Z,20.00
2023-03-01T08:51:16.154Z,20.10
2023-03-01T08:53:17.837Z,20.20
2023-03-01T08:55:19.545Z,20.10
2023-03-01T08:57:21.240Z,20.20
2023-03-01T08:59:22.937Z,20.20
2023-03-01T09:01:24.673Z,20.20
2023-03-01T09:03:26.821Z,20.20
2023-03-01T09:05:28.619Z,20.30
2023-03-01T09:07:30.338Z,20.30
2023-03-01T09:09:32.050Z,20.30
2023-03-01T09:11:33.734Z,20.20
2023-03-01T09:13:36.085Z,20.10
2023-03-01T09:15:38.563Z,20.00
2023-03-01T09:17:40.314Z,19.80
2023-03-01T09:19:42.030Z,19.80
2023-03-01T09:21:43.895Z,19.90
2023-03-01T09:23:46.705Z,20.00
2023-03-01T09:25:48.458Z,20.10
2023-03-01T09:27:53.811Z,20.10
2023-03-01T09:29:55.576Z,20.10
2023-03-01T09:31:57.353Z,20.10
2023-03-01T09:33:59.149Z,20.20
2023-03-01T09:36:05.192Z,20.20
2023-03-01T09:38:06.973Z,20.10
2023-03-01T09:40:12.895Z,20.30
2023-03-01T09:42:14.674Z,20.30
2023-03-01T09:44:16.353Z,20.30
2023-03-01T09:46:18.196Z,20.30
2023-03-01T09:48:21.233Z,20.30
2023-03-01T09:50:23.064Z,20.30
2023-03-01T09:52:42.226Z,20.30
2023-03-01T09:54:43.959Z,20.30
2023-03-01T09:56:51.201Z,20.30
2023-03-01T09:59:16.106Z,20.30
2023-03-01T10:01:20.927Z,20.30
2023-03-01T10:03:27.351Z,20.30
2023-03-01T10:05:32.157Z,20.30
2023-03-01T10:07:55.734Z,20.30
2023-03-01T10:09:58.292Z,20.30
2023-03-01T10:12:04.570Z,20.30
2023-03-01T10:14:14.054Z,20.30
2023-03-01T10:16:17.810Z,20.40
2023-03-01T10:18:21.378Z,20.40
2023-03-01T10:20:26.913Z,20.40
2023-03-01T10:22:29.495Z,20.40
2023-03-01T10:24:34.977Z,20.50
2023-03-01T10:26:56.445Z,20.40
2023-03-01T10:29:06.497Z,20.40
2023-03-01T10:31:13.135Z,20.50
2023-03-01T10:33:17.976Z,20.40
2023-03-01T10:35:20.944Z,20.50
2023-03-01T10:37:23.083Z,20.50
2023-03-01T10:39:26.513Z,20.50
2023-03-01T10:41:28.310Z,20.40
2023-03-01T10:43:44.047Z,20.50
2023-03-01T10:45:45.900Z,20.30
2023-03-01T10:47:47.642Z,20.30
2023-03-01T10:49:58.527Z,20.20
2023-03-01T10:52:18.230Z,20.30
2023-03-01T10:54:19.967Z,20.30
2023-03-01T10:56:21.722Z,20.30
2023-03-01T10:58:23.567Z,20.40
2023-03-01T11:00:26.387Z,20.40
2023-03-01T11:02:31.222Z,20.50
2023-03-01T11:04:32.977Z,20.40
2023-03-01T11:06:35.897Z,20.40
2023-03-01T11:08:37.608Z,20.40
2023-03-01T11:10:39.353Z,20.40
2023-03-01T11:12:41.229Z,20.40
2023-03-01T11:14:50.463Z,20.40
2023-03-01T11:17:05.942Z,20.40
2023-03-01T11:19:10.418Z,20.50
2023-03-01T11:21:12.163Z,20.60
2023-03-01T11:23:15.038Z,20.50
2023-03-01T11:25:18.326Z,20.60
2023-03-01T11:27:31.531Z,20.60
2023-03-01T11:29:47.691Z,20.70
2023-03-01T11:31:57.612Z,20.80
2023-03-01T11:33:59.567Z,20.80
2023-03-01T11:36:04.294Z,20.80
2023-03-01T11:38:13.755Z,20.90
2023-03-01T11:40:23.049Z,21.00
2023-03-01T11:42:38.577Z,20.90
2023-03-01T11:44:42.845Z,20.90
2023-03-01T11:47:03.073Z,21.00
2023-03-01T11:49:14.079Z,21.00
2023-03-01T11:51:25.207Z,21.00
2023-03-01T11:53:45.390Z,21.10
2023-03-01T11:55:52.922Z,21.10
2023-03-01T11:58:13.351Z,21.10
2023-03-01T12:00:18.133Z,21.10
2023-03-01T12:02:35.193Z,21.10
2023-03-01T12:04:45.808Z,21.20
2023-03-01T12:06:57.780Z,21.20
2023-03-01T12:09:05.764Z,21.20
2023-03-01T12:11:19.644Z,21.20
2023-03-01T12:13:30.695Z,21.20
2023-03-01T12:15:52.424Z,21.20
2023-03-01T12:17:56.991Z,21.20
2023-03-01T12:20:10.904Z,21.20
2023-03-01T12:22:29.766Z,21.20
2023-03-01T12:24:43.624Z,21.20
2023-03-01T12:26:45.301Z,21.20
2023-03-01T12:29:13.383Z,21.10
2023-03-01T12:31:34.303Z,21.10
2023-03-01T12:33:44.498Z,21.10
2023-03-01T12:35:46.202Z,21.20
2023-03-01T12:38:06.269Z,21.20
2023-03-01T12:40:17.187Z,21.20
2023-03-01T12:42:18.944Z,21.20
2023-03-01T12:44:30.458Z,21.20
2023-03-01T12:46:57.759Z,21.20
2023-03-01T12:49:15.018Z,21.20
2023-03-01T12:51:18.587Z,21.20
2023-03-01T12:53:35.850Z,21.20
2023-03-01T12:55:39.640Z,21.20
2023-03-01T12:57:43.818Z,21.20
2023-03-01T13:00:04.081Z,21.20
2023-03-01T13:02:20.301Z,21.20
2023-03-01T13:04:40.906Z,21.20
2023-03-01T13:06:56.801Z,21.20
2023-03-01T13:09:10.844Z,21.10
2023-03-01T13:11:20.358Z,21.20
2023-03-01T13:13:23.923Z,21.20
2023-03-01T13:15:27.076Z,21.10
2023-03-01T13:17:31.467Z,21.10
2023-03-01T13:19:33.399Z,21.10
2023-03-01T13:21:35.157Z,21.10
2023-03-01T13:23:39.304Z,21.10
2023-03-01T13:26:14.035Z,21.10
2023-03-01T13:28:42.071Z,21.00
2023-03-01T13:30:43.876Z,21.00
2023-03-01T13:32:45.652Z,21.00
2023-03-01T13:34:48.436Z,21.00
2023-03-01T13:36:50.483Z,21.00
2023-03-01T13:38:55.196Z,21.00
2023-03-01T13:40:56.892Z,20.90
2023-03-01T13:43:18.502Z,20.80
2023-03-01T13:45:39.081Z,20.70
2023-03-01T13:47:42.424Z,20.70
2023-03-01T13:49:47.265Z,20.70
2023-03-01T13:51:49.935Z,20.70
2023-03-01T13:53:52.774Z,20.70
2023-03-01T13:56:03.777Z,20.70
2023-03-01T13:58:15.073Z,20.80
2023-03-01T14:00:27.503Z,20.80
2023-03-01T14:02:29.271Z,20.80
2023-03-01T14:04:32.367Z,20.80
2023-03-01T14:06:34.984Z,20.80
2023-03-01T14:08:37.355Z,20.80
2023-03-01T14:10:54.480Z,20.80
2023-03-01T14:13:15.677Z,20.70
2023-03-01T14:15:30.117Z,20.80
2023-03-01T14:17:50.369Z,20.80
2023-03-01T14:19:59.472Z,20.80
2023-03-01T14:22:05.306Z,20.80
2023-03-01T14:24:15.750Z,20.80
2023-03-01T14:26:21.759Z,20.80
2023-03-01T14:28:30.496Z,20.80
2023-03-01T14:30:37.491Z,20.80
2023-03-01T14:32:39.454Z,20.90
2023-03-01T14:34:48.781Z,20.90
2023-03-01T14:36:50.842Z,20.90
2023-03-01T14:38:52.677Z,20.90
2023-03-01T14:40:57.007Z,20.90
2023-03-01T14:43:00.383Z,20.70
2023-03-01T14:45:02.925Z,20.70
2023-03-01T14:47:05.401Z,20.70
2023-03-01T14:49:10.823Z,20.70
2023-03-01T14:51:13.178Z,20.70
2023-03-01T14:53:18.872Z,20.80
2023-03-01T14:55:22.218Z,20.80
2023-03-01T14:57:25.108Z,20.80
2023-03-01T14:59:26.917Z,20.80
2023-03-01T15:01:28.851Z,20.80
2023-03-01T15:03:44.152Z,20.80
2023-03-01T15:05:46.101Z,20.80
2023-03-01T15:07:47.867Z,20.90
2023-03-01T15:09:49.701Z,20.90
2023-03-01T15:11:51.383Z,21.00
2023-03-01T15:13:53.445Z,20.90
2023-03-01T15:16:02.725Z,20.90
2023-03-01T15:18:06.597Z,21.00
2023-03-01T15:20:17.739Z,20.90
2023-03-01T15:22:19.498Z,20.90
2023-03-01T15:24:23.799Z,20.80
2023-03-01T15:26:28.564Z,20.80
2023-03-01T15:28:32.501Z,20.90
2023-03-01T15:30:36.149Z,20.90
2023-03-01T15:32:38.215Z,20.90
2023-03-01T15:34:40.037Z,20.90
2023-03-01T15:36:44.156Z,20.90
2023-03-01T15:38:51.936Z,21.00
2023-03-01T15:40:53.996Z,20.80
2023-03-01T15:42:55.658Z,20.50
2023-03-01T15:45:09.465Z,20.60
2023-03-01T15:47:40.633Z,20.60
2023-03-01T15:49:54.268Z,20.60
2023-03-01T15:51:56.674Z,20.60
2023-03-01T15:54:00.141Z,20.60
2023-03-01T15:56:03.013Z,20.70
2023-03-01T15:58:06.522Z,20.70
2023-03-01T16:00:11.622Z,20.70
2023-03-01T16:02:13.600Z,20.70
2023-03-01T16:04:17.243Z,20.70
2023-03-01T16:06:18.960Z,20.70
2023-03-01T16:08:20.786Z,20.70
2023-03-01T16:10:22.722Z,20.70
2023-03-01T16:12:24.813Z,20.80
2023-03-01T16:14:26.650Z,20.80
2023-03-01T16:16:28.454Z,20.70
2023-03-01T16:18:30.179Z,20.70
2023-03-01T16:20:33.991Z,20.70
2023-03-01T16:22:35.809Z,20.70
2023-03-01T16:24:37.521Z,20.70
2023-03-01T16:26:41.528Z,20.70
2023-03-01T16:28:43.521Z,20.70
2023-03-01T16:30:48.325Z,20.70
2023-03-01T16:32:51.248Z,20.70
2023-03-01T16:34:53.135Z,20.80
2023-03-01T16:36:54.846Z,20.70
2023-03-01T16:38:58.590Z,20.70
2023-03-01T16:41:00.300Z,20.70
2023-03-01T16:43:02.152Z,20.70
2023-03-01T16:45:09.110Z,20.70
2023-03-01T16:47:15.633Z,20.80
2023-03-01T16:49:17.385Z,20.60
2023-03-01T16:51:19.596Z,20.60
2023-03-01T16:53:21.339Z,20.50
2023-03-01T16:55:23.099Z,20.50
2023-03-01T16:57:24.907Z,20.50
2023-03-01T16:59:26.785Z,20.50
2023-03-01T17:01:28.658Z,20.50
2023-03-01T17:03:30.637Z,20.60
2023-03-01T17:05:32.468Z,20.60
2023-03-01T17:07:34.719Z,20.60
2023-03-01T17:09:37.302Z,20.60
2023-03-01T17:11:39.052Z,20.60
2023-03-01T17:13:41.288Z,20.50
2023-03-01T17:15:43.038Z,20.50
2023-03-01T17:17:44.903Z,20.50
2023-03-01T17:19:46.723Z,20.50
2023-03-01T17:21:48.480Z,20.30
2023-03-01T17:23:50.374Z,20.20
2023-03-01T17:25:52.907Z,20.30
2023-03-01T17:27:54.673Z,20.20
2023-03-01T17:29:56.489Z,20.20
2023-03-01T17:31:58.454Z,20.10
2023-03-01T17:34:01.624Z,20.00
2023-03-01T17:36:03.762Z,20.00
2023-03-01T17:38:05.641Z,20.00
2023-03-01T17:40:07.712Z,20.10
2023-03-01T17:42:09.514Z,20.20
2023-03-01T17:44:11.333Z,20.20
2023-03-01T17:46:13.255Z,20.10
2023-03-01T17:48:15.755Z,20.20
2023-03-01T17:50:17.599Z,19.90
2023-03-01T17:52:19.375Z,19.90
2023-03-01T17:54:21.191Z,19.90
2023-03-01T17:56:22.907Z,19.90
2023-03-01T17:58:24.646Z,19.90
2023-03-01T18:00:26.490Z,19.90
2023-03-01T18:02:28.293Z,19.90
2023-03-01T18:04:30.119Z,19.90
2023-03-01T18:06:32.127Z,19.80
2023-03-01T18:08:34.056Z,19.80
2023-03-01T18:10:35.851Z,19.70
2023-03-01T18:12:37.838Z,19.70
2023-03-01T18:14:39.607Z,19.70
2023-03-01T18:16:41.432Z,19.70
2023-03-01T18:18:43.443Z,19.70
2023-03-01T18:20:45.192Z,19.70
2023-03-01T18:22:47.062Z,19.70
2023-03-01T18:24:48.826Z,19.70
2023-03-01T18:26:50.617Z,19.60
2023-03-01T18:28:52.682Z,19.60
2023-03-01T18:31:01.430Z,19.60
2023-03-01T18:33:03.235Z,19.60
2023-03-01T18:35:05.403Z,19.60
2023-03-01T18:37:09.773Z,19.60
2023-03-01T18:39:11.974Z,19.60
2023-03-01T18:41:13.743Z,19.50
2023-03-01T18:43:15.528Z,19.60
2023-03-01T18:45:17.269Z,19.60
2023-03-01T18:47:19.103Z,19.60
2023-03-01T18:49:20.878Z,19.50
2023-03-01T18:51:26.691Z,19.50
2023-03-01T18:53:28.467Z,19.50
2023-03-01T18:55:30.324Z,19.50
2023-03-01T18:57:32.114Z,19.50
2023-03-01T18:59:33.876Z,19.50
2023-03-01T19:01:37.547Z,19.50
2023-03-01T19:03:39.593Z,19.50
2023-03-01T19:05:41.351Z,19.50
2023-03-01T19:07:43.178Z,19.50
2023-03-01T19:09:44.940Z,19.50
2023-03-01T19:11:46.751Z,19.50
2023-03-01T19:13:48.628Z,19.40
2023-03-01T19:15:50.383Z,19.40
2023-03-01T19:17:53.611Z,19.50
2023-03-01T19:19:59.609Z,19.50
2023-03-01T19:22:06.080Z,19.40
2023-03-01T19:24:08.123Z,19.40
2023-03-01T19:26:13.603Z,19.40
2023-03-01T19:28:15.384Z,19.40
2023-03-01T19:30:17.311Z,19.40
2023-03-01T19:32:19.107Z,19.50
2023-03-01T19:34:20.919Z,19.50
2023-03-01T19:36:22.678Z,19.40
2023-03-01T19:38:24.811Z,19.40
2023-03-01T19:40:26.592Z,19.40
2023-03-01T19:42:28.340Z,19.50
2023-03-01T19:44:30.147Z,19.40
2023-03-01T19:46:32.755Z,19.40
2023-03-01T19:48:34.881Z,19.40
2023-03-01T19:50:36.644Z,19.40
2023-03-01T19:52:38.946Z,19.40
2023-03-01T19:54:40.702Z,19.40
2023-03-01T19:56:42.463Z,19.30
2023-03-01T19:58:44.332Z,19.30
2023-03-01T20:00:46.910Z,19.40
2023-03-01T20:02:48.741Z,19.30
2023-03-01T20:04:50.573Z,19.30
2023-03-01T20:06:52.352Z,19.30
2023-03-01T20:08:54.134Z,19.40
2023-03-01T20:11:01.606Z,19.40
2023-03-01T20:13:03.379Z,19.40
2023-03-01T20:15:05.426Z,19.30
2023-03-01T20:17:07.171Z,19.30
2023-03-01T20:19:08.962Z,19.30
2023-03-01T20:21:22.827Z,19.30
2023-03-01T20:23:25.586Z,19.30
2023-03-01T20:25:27.426Z,19.30
2023-03-01T20:27:29.233Z,19.30
2023-03-01T20:29:30.943Z,19.30
2023-03-01T20:31:32.771Z,19.30
2023-03-01T20:33:34.642Z,19.40
2023-03-01T20:35:36.427Z,19.30
2023-03-01T20:37:38.461Z,19.30
2023-03-01T20:39:40.176Z,19.30
2023-03-01T20:41:42.017Z,19.30
2023-03-01T20:43:43.798Z,19.30
2023-03-01T20:45:45.530Z,19.30
2023-03-01T20:47:47.690Z,19.30
2023-03-01T20:49:52.505Z,19.30
2023-03-01T20:51:54.286Z,19.30
2023-03-01T20:53:56.085Z,19.30
2023-03-01T20:56:01.669Z,19.30
2023-03-01T20:58:03.531Z,19.30
2023-03-01T21:00:06.111Z,19.30
2023-03-01T21:02:07.911Z,19.30
2023-03-01T21:04:09.733Z,19.30
2023-03-01T21:06:11.943Z,19.30
2023-03-01T21:08:13.737Z,19.30
2023-03-01T21:10:15.682Z,19.30
2023-03-01T21:12:17.490Z,19.30
2023-03-01T21:14:19.229Z,19.30
2023-03-01T21:16:21.538Z,19.30
2023-03-01T21:18:23.764Z,19.30
2023-03-01T21:20:25.530Z,19.30
2023-03-01T21:22:27.340Z,19.30
2023-03-01T21:24:29.108Z,19.30
2023-03-01T21:26:31.159Z,19.30
2023-03-01T21:28:33.945Z,19.30
2023-03-01T21:31:10.694Z,19.30
2023-03-01T21:33:12.502Z,19.30
2023-03-01T21:35:14.274Z,19.30
2023-03-01T21:37:16.029Z,19.30
2023-03-01T21:39:17.840Z,19.30
2023-03-01T21:41:20.995Z,19.30
2023-03-01T21:43:23.034Z,19.30
2023-03-01T21:45:24.846Z,19.30
2023-03-01T21:47:26.686Z,19.30
2023-03-01T21:49:28.572Z,19.30
2023-03-01T21:51:30.659Z,19.30
2023-03-01T21:53:34.222Z,19.30
2023-03-01T21:55:35.951Z,19.30
2023-03-01T21:57:37.772Z,19.30
2023-03-01T21:59:39.534Z,19.30
2023-03-01T22:01:41.418Z,19.30
2023-03-01T22:03:43.874Z,19.30
2023-03-01T22:05:59.028Z,19.30
2023-03-01T22:08:00.899Z,19.30
2023-03-01T22:10:02.658Z,19.30
2023-03-01T22:12:04.598Z,19.30
2023-03-01T22:14:06.641Z,19.30
2023-03-01T22:16:08.490Z,19.30
2023-03-01T22:18:11.067Z,19.30
2023-03-01T22:20:12.927Z,19.30
2023-03-01T22:22:14.726Z,19.30
2023-03-01T22:24:17.930Z,19.30
2023-03-01T22:26:21.875Z,19.30
2023-03-01T22:28:23.683Z,19.30
2023-03-01T22:30:25.483Z,19.30
2023-03-01T22:32:27.297Z,19.30
2023-03-01T22:34:29.128Z,19.30
2023-03-01T22:36:31.252Z,19.30
2023-03-01T22:38:33.296Z,19.30
2023-03-01T22:40:35.047Z,19.30
2023-03-01T22:42:36.890Z,19.30
2023-03-01T22:44:38.602Z,19.30
2023-03-01T22:46:40.591Z,19.30
2023-03-01T22:48:42.401Z,19.30
2023-03-01T22:50:45.058Z,19.30
2023-03-01T22:52:46.870Z,19.30
2023-03-01T22:54:48.638Z,19.30
2023-03-01T22:56:50.402Z,19.30
2023-03-01T22:58:52.194Z,19.30
2023-03-01T23:00:53.946Z,19.30
2023-03-01T23:02:55.832Z,19.30
2023-03-01T23:04:57.682Z,19.30
2023-03-01T23:06:59.455Z,19.30
2023-03-01T23:09:02.358Z,19.30
2023-03-01T23:11:04.638Z,19.30
2023-03-01T23:13:10.772Z,19.30
2023-03-01T23:15:12.589Z,19.30
2023-03-01T23:17:14.374Z,19.30
2023-03-01T23:19:16.384Z,19.30
2023-03-01T23:21:19.620Z,19.30
2023-03-01T23:23:21.399Z,19.30
2023-03-01T23:25:23.199Z,19.30
2023-03-01T23:27:24.978Z,19.30
2023-03-01T23:29:26.778Z,19.30
2023-03-01T23:31:28.547Z,19.30
2023-03-01T23:33:30.962Z,19.30
2023-03-01T23:35:32.816Z,19.30
2023-03-01T23:37:34.560Z,19.20
2023-03-01T23:39:36.639Z,19.30
2023-03-01T23:41:38.924Z,19.30
2023-03-01T23:43:43.474Z,19.30
2023-03-01T23:45:45.264Z,19.30
2023-03-01T23:47:46.997Z,19.30
2023-03-01T23:49:49.919Z,19.30
2023-03-01T23:51:52.143Z,19.30
2023-03-01T23:53:55.366Z,19.30
2023-03-01T23:55:57.144Z,19.30
2023-03-01T23:57:58.912Z,19.30
